Time;durP1;ratioP1;P1;durP2;ratioP2;P2;SDS_P1;SDS_P2;PMS_P1;PMS_P2;Temp;Humidity;BMP_temperature;BMP_pressure;BME280_temperature;BME280_humidity;BME280_pressure;Samples;Min_cycle;Max_cycle;Signal;HPM_P1;HPM_P2
2022/03/24 00:03:15;;;;;;;8.58;5.17;;;10.20;99.90;;;;;;1945635;72;22655;-81
2022/03/24 00:09:06;;;;;;;7.37;4.40;;;10.10;99.90;;;;;;1931695;72;22166;-82
2022/03/24 00:12:22;;;;;;;9.13;5.33;;;10.00;99.90;;;;;;1873901;75;21069;-82
2022/03/24 00:15:21;;;;;;;6.55;4.92;;;9.90;99.90;;;;;;1878907;75;21129;-83
2022/03/24 00:18:12;;;;;;;7.42;5.08;;;9.90;99.90;;;;;;1883515;75;21095;-83
2022/03/24 00:23:42;;;;;;;6.70;5.05;;;9.80;99.90;;;;;;1939828;72;22301;-82
2022/03/24 00:26:52;;;;;;;6.10;4.62;;;9.70;99.90;;;;;;1899260;75;21128;-83
2022/03/24 00:29:45;;;;;;;7.15;4.58;;;9.60;99.90;;;;;;1869623;76;21105;-82
2022/03/24 00:35:17;;;;;;;7.95;4.72;;;9.60;99.90;;;;;;1939891;72;22180;-81
2022/03/24 00:38:27;;;;;;;6.97;4.97;;;9.60;99.90;;;;;;1899724;75;21163;-82
2022/03/24 00:41:19;;;;;;;7.17;5.15;;;9.60;99.90;;;;;;1899993;75;21167;-82
2022/03/24 00:44:11;;;;;;;8.48;4.70;;;9.60;99.90;;;;;;1891870;75;21636;-82
2022/03/24 00:47:04;;;;;;;7.47;5.05;;;9.50;99.90;;;;;;1905851;75;21066;-82
2022/03/24 00:49:55;;;;;;;8.95;5.20;;;9.50;99.90;;;;;;1907851;75;21087;-82
2022/03/24 00:52:47;;;;;;;5.62;4.42;;;9.40;99.90;;;;;;1917491;75;21051;-82
2022/03/24 00:55:41;;;;;;;6.80;5.03;;;9.40;99.90;;;;;;1895013;75;21131;-82
2022/03/24 00:58:33;;;;;;;6.95;4.67;;;9.40;99.90;;;;;;1906502;75;21055;-82
2022/03/24 01:01:24;;;;;;;6.50;4.58;;;9.40;99.90;;;;;;1900182;75;21121;-82
2022/03/24 01:04:17;;;;;;;7.62;4.42;;;9.40;99.90;;;;;;1892923;75;21083;-82
2022/03/24 01:07:10;;;;;;;7.55;5.00;;;9.50;99.90;;;;;;1907191;75;21114;-82
2022/03/24 01:10:01;;;;;;;8.08;5.25;;;9.50;99.90;;;;;;1906673;75;21059;-82
2022/03/24 01:12:55;;;;;;;7.28;4.95;;;9.30;99.90;;;;;;1911563;75;21060;-82
2022/03/24 01:15:47;;;;;;;8.65;5.15;;;9.20;99.90;;;;;;1903642;75;21151;-82
2022/03/24 01:18:41;;;;;;;9.70;5.65;;;9.20;99.90;;;;;;1917660;75;21059;-82
2022/03/24 01:21:33;;;;;;;6.00;4.70;;;9.10;99.90;;;;;;1892121;75;21093;-82
2022/03/24 01:24:25;;;;;;;6.50;4.80;;;9.10;99.90;;;;;;1906895;75;21055;-82
2022/03/24 01:27:16;;;;;;;8.35;5.20;;;9.10;99.90;;;;;;1871798;76;21077;-82
2022/03/24 01:30:10;;;;;;;5.85;4.45;;;9.10;99.90;;;;;;1889003;75;21129;-82
2022/03/24 01:33:03;;;;;;;7.10;4.90;;;9.10;99.90;;;;;;1892571;75;21136;-82
2022/03/24 01:35:55;;;;;;;6.58;4.85;;;9.10;99.90;;;;;;1904550;74;21113;-82
2022/03/24 01:38:46;;;;;;;8.15;4.45;;;9.00;99.90;;;;;;1918081;74;21115;-82
2022/03/24 01:44:24;;;;;;;7.50;5.33;;;9.00;99.90;;;;;;1958060;72;22136;-83
2022/03/24 01:47:35;;;;;;;7.03;4.90;;;9.00;99.90;;;;;;1898642;75;21063;-83
2022/03/24 01:50:27;;;;;;;9.78;4.67;;;8.90;99.90;;;;;;1907528;75;21056;-83
2022/03/24 01:53:19;;;;;;;8.48;4.97;;;8.90;99.90;;;;;;1884327;75;21056;-83
2022/03/24 01:58:51;;;;;;;6.97;4.65;;;8.80;99.90;;;;;;1945422;72;22163;-81
2022/03/24 02:02:01;;;;;;;6.17;4.58;;;8.90;99.90;;;;;;1884554;75;21158;-84
2022/03/24 02:04:52;;;;;;;9.90;5.12;;;8.80;99.90;;;;;;1891448;75;21055;-83
2022/03/24 02:07:46;;;;;;;7.83;5.08;;;8.80;99.90;;;;;;1917654;75;21092;-84
2022/03/24 02:10:40;;;;;;;8.25;5.08;;;8.80;99.90;;;;;;1898885;75;21533;-82
2022/03/24 02:13:33;;;;;;;7.33;5.30;;;8.70;99.90;;;;;;1898619;75;21164;-82
2022/03/24 02:16:27;;;;;;;6.92;5.25;;;8.70;99.90;;;;;;1895607;75;21067;-83
2022/03/24 02:19:21;;;;;;;8.00;5.45;;;8.70;99.90;;;;;;1895451;75;21112;-84
2022/03/24 02:22:14;;;;;;;7.50;5.83;;;8.70;99.90;;;;;;1896077;75;21156;-82
2022/03/24 02:25:09;;;;;;;7.87;5.47;;;8.70;99.90;;;;;;1901678;75;21130;-82
2022/03/24 02:28:03;;;;;;;8.25;5.50;;;8.60;99.90;;;;;;1897387;75;21180;-82
2022/03/24 02:30:54;;;;;;;8.58;5.70;;;8.60;99.90;;;;;;1895497;75;21109;-82
2022/03/24 02:33:46;;;;;;;8.98;6.60;;;8.60;99.90;;;;;;1895826;75;21132;-82
2022/03/24 02:36:41;;;;;;;9.25;5.90;;;8.60;99.90;;;;;;1898256;75;21121;-82
2022/03/24 02:39:33;;;;;;;11.33;6.40;;;8.60;99.90;;;;;;1900172;75;21102;-82
2022/03/24 02:42:26;;;;;;;9.13;5.95;;;8.50;99.90;;;;;;1895697;75;21048;-82
2022/03/24 02:45:17;;;;;;;8.05;5.47;;;8.40;99.90;;;;;;1895666;75;21074;-82
2022/03/24 02:48:09;;;;;;;7.90;6.60;;;8.40;99.90;;;;;;1917325;75;21124;-82
2022/03/24 02:51:02;;;;;;;8.25;5.60;;;8.40;99.90;;;;;;1885115;75;21055;-82
2022/03/24 02:53:54;;;;;;;10.65;6.37;;;8.40;99.90;;;;;;1896874;75;21116;-82
2022/03/24 02:56:47;;;;;;;7.97;5.60;;;8.40;99.90;;;;;;1895619;75;21055;-82
2022/03/24 02:59:43;;;;;;;7.83;5.60;;;8.30;99.90;;;;;;1923568;74;21100;-82
2022/03/24 03:02:34;;;;;;;8.98;5.37;;;8.40;99.90;;;;;;1874447;76;21070;-82
2022/03/24 03:05:27;;;;;;;9.05;5.67;;;8.40;99.90;;;;;;1818449;79;21148;-82
2022/03/24 03:08:19;;;;;;;8.55;5.03;;;8.30;99.90;;;;;;1847750;77;21102;-83
2022/03/24 03:11:10;;;;;;;8.43;5.83;;;8.30;99.90;;;;;;1827856;78;21132;-83
2022/03/24 03:14:03;;;;;;;8.00;6.00;;;8.10;99.90;;;;;;1828755;78;21161;-82
2022/03/24 03:16:55;;;;;;;9.98;6.20;;;8.10;99.90;;;;;;1847000;77;21096;-82
2022/03/24 03:19:47;;;;;;;7.67;6.15;;;8.10;99.90;;;;;;1826381;78;21107;-82
2022/03/24 03:22:39;;;;;;;11.73;6.37;;;8.10;99.90;;;;;;1840159;77;21123;-82
2022/03/24 03:25:31;;;;;;;9.38;6.55;;;8.10;99.90;;;;;;1835539;77;21076;-82
2022/03/24 03:28:23;;;;;;;9.43;6.80;;;8.10;99.90;;;;;;1847977;77;21110;-82
2022/03/24 03:31:15;;;;;;;10.88;6.72;;;8.20;99.90;;;;;;1848269;77;21079;-82
2022/03/24 03:34:08;;;;;;;8.58;5.95;;;8.20;99.90;;;;;;1819067;78;21069;-82
2022/03/24 03:37:00;;;;;;;9.90;6.37;;;8.20;99.90;;;;;;1838393;77;21063;-82
2022/03/24 03:39:52;;;;;;;11.48;6.58;;;8.10;99.90;;;;;;1848289;77;21158;-82
2022/03/24 03:42:44;;;;;;;7.92;5.90;;;8.10;99.90;;;;;;1848433;76;21066;-82
2022/03/24 03:45:36;;;;;;;7.83;6.35;;;8.00;99.90;;;;;;1844334;77;21060;-83
2022/03/24 03:48:29;;;;;;;8.83;5.87;;;7.90;99.90;;;;;;1863230;77;21079;-82
2022/03/24 03:51:21;;;;;;;8.08;6.30;;;7.90;99.90;;;;;;1848226;78;21157;-82
2022/03/24 03:54:14;;;;;;;9.83;6.55;;;7.90;99.90;;;;;;1847270;77;21108;-82
2022/03/24 03:57:06;;;;;;;8.48;6.25;;;7.80;99.90;;;;;;1827267;78;21107;-82
2022/03/24 04:00:52;;;;;;;9.65;6.70;;;7.80;99.90;;;;;;1831183;77;21214;-82
2022/03/24 04:02:53;;;;;;;9.95;6.87;;;7.80;99.90;;;;;;1845114;77;21150;-82
2022/03/24 04:05:46;;;;;;;10.65;6.58;;;7.80;99.90;;;;;;1855547;77;21124;-83
2022/03/24 04:08:40;;;;;;;8.28;6.50;;;7.80;99.90;;;;;;1824526;77;21598;-83
2022/03/24 04:11:31;;;;;;;12.98;6.90;;;7.70;99.90;;;;;;1833689;77;21119;-83
2022/03/24 04:14:25;;;;;;;11.18;7.05;;;7.70;99.90;;;;;;1815428;78;21148;-81
2022/03/24 04:17:17;;;;;;;12.37;7.17;;;7.70;99.90;;;;;;1834948;77;21115;-82
2022/03/24 04:20:12;;;;;;;10.13;7.15;;;7.60;99.90;;;;;;1851933;77;21088;-82
2022/03/24 04:23:05;;;;;;;10.63;7.35;;;7.60;99.90;;;;;;1833825;77;21173;-82
2022/03/24 04:25:57;;;;;;;8.85;7.78;;;7.60;99.90;;;;;;1904944;75;21056;-82
2022/03/24 04:28:49;;;;;;;9.93;7.30;;;7.60;99.90;;;;;;1908176;75;21055;-82
2022/03/24 04:31:40;;;;;;;12.33;8.20;;;7.70;99.90;;;;;;1898484;75;21195;-82
2022/03/24 04:34:32;;;;;;;12.68;7.55;;;7.60;99.90;;;;;;1884146;75;21115;-82
2022/03/24 04:37:25;;;;;;;11.63;7.55;;;7.60;99.90;;;;;;1879706;75;21566;-82
2022/03/24 04:40:17;;;;;;;10.10;7.65;;;7.60;99.90;;;;;;1882736;75;21150;-82
2022/03/24 04:43:09;;;;;;;10.78;7.67;;;7.50;99.90;;;;;;1897123;75;21059;-82
2022/03/24 04:46:01;;;;;;;10.93;7.67;;;7.50;99.90;;;;;;1884038;75;21056;-84
2022/03/24 04:48:53;;;;;;;8.65;7.17;;;7.50;99.90;;;;;;1872025;75;21104;-82
2022/03/24 04:51:45;;;;;;;11.80;7.60;;;7.50;99.90;;;;;;1885428;75;21213;-82
2022/03/24 04:54:37;;;;;;;9.80;7.22;;;7.50;99.90;;;;;;1872055;75;21119;-83
2022/03/24 04:57:29;;;;;;;10.40;7.00;;;7.50;99.90;;;;;;1884219;75;21060;-83
2022/03/24 05:00:21;;;;;;;9.70;7.00;;;7.60;99.90;;;;;;1872094;75;21587;-83
2022/03/24 05:03:14;;;;;;;9.28;7.08;;;7.60;99.90;;;;;;1884193;75;21104;-82
2022/03/24 05:06:06;;;;;;;12.65;8.15;;;7.50;99.90;;;;;;1872134;75;21059;-84
2022/03/24 05:08:57;;;;;;;11.60;6.40;;;7.50;99.90;;;;;;1884253;76;21148;-83
2022/03/24 05:11:49;;;;;;;11.03;6.47;;;7.50;99.90;;;;;;1897801;75;21135;-83
2022/03/24 05:14:42;;;;;;;11.57;6.90;;;7.40;99.90;;;;;;1894764;75;21135;-84
2022/03/24 05:17:34;;;;;;;11.38;7.40;;;7.40;99.90;;;;;;1894677;75;21110;-82
2022/03/24 05:20:26;;;;;;;11.88;7.90;;;7.40;99.90;;;;;;1916952;75;21059;-83
2022/03/24 05:23:17;;;;;;;10.88;7.65;;;7.40;99.90;;;;;;1898539;75;21124;-84
2022/03/24 05:26:09;;;;;;;12.78;8.03;;;7.30;99.90;;;;;;1873850;75;21112;-83
2022/03/24 05:29:01;;;;;;;10.75;8.28;;;7.30;99.90;;;;;;1876280;75;21141;-82
2022/03/24 05:31:53;;;;;;;10.85;7.85;;;7.30;99.90;;;;;;1884167;75;21138;-82
2022/03/24 05:34:45;;;;;;;9.98;6.65;;;7.30;99.90;;;;;;1884118;76;21105;-82
2022/03/24 05:37:37;;;;;;;8.55;5.95;;;7.20;99.90;;;;;;1906385;75;21047;-84
2022/03/24 05:40:29;;;;;;;8.63;5.10;;;7.20;99.90;;;;;;1905988;75;21189;-82
2022/03/24 05:43:21;;;;;;;8.70;5.08;;;7.20;99.90;;;;;;1884012;75;21061;-82
2022/03/24 05:46:13;;;;;;;8.73;5.17;;;7.20;99.90;;;;;;1884128;75;21048;-82
2022/03/24 05:49:07;;;;;;;8.13;5.30;;;7.20;99.90;;;;;;1871879;75;21186;-83
2022/03/24 05:52:16;;;;;;;7.17;4.90;;;7.20;99.90;;;;;;1883983;76;21125;-84
2022/03/24 05:55:10;;;;;;;7.83;5.28;;;7.10;99.90;;;;;;1871956;75;21141;-84
2022/03/24 05:58:02;;;;;;;10.00;5.75;;;7.10;99.90;;;;;;1893011;74;21051;-83
2022/03/24 06:00:55;;;;;;;7.08;4.95;;;7.10;99.90;;;;;;1889630;75;21162;-83
2022/03/24 06:03:51;;;;;;;11.12;5.10;;;7.00;99.90;;;;;;1897915;75;21518;-83
2022/03/24 06:06:43;;;;;;;9.20;5.50;;;7.00;99.90;;;;;;1890008;75;21164;-83
2022/03/24 06:09:35;;;;;;;10.28;5.72;;;7.00;99.90;;;;;;1885919;75;21061;-84
2022/03/24 06:12:28;;;;;;;8.90;6.00;;;7.10;99.90;;;;;;1886065;75;21054;-83
2022/03/24 06:15:22;;;;;;;9.38;6.58;;;7.10;99.90;;;;;;1900271;75;21132;-84
2022/03/24 06:18:15;;;;;;;8.73;6.17;;;7.10;99.90;;;;;;1895188;75;21302;-83
2022/03/24 06:21:10;;;;;;;9.30;6.03;;;7.20;99.90;;;;;;1910187;75;21140;-85
2022/03/24 06:24:04;;;;;;;8.08;6.42;;;7.30;99.90;;;;;;1906271;75;21112;-85
2022/03/24 06:26:56;;;;;;;11.05;7.10;;;7.30;99.90;;;;;;1903447;75;21047;-86
2022/03/24 06:29:48;;;;;;;10.85;7.55;;;7.30;99.90;;;;;;1898303;75;21126;-85
2022/03/24 06:32:40;;;;;;;13.62;8.00;;;7.40;99.90;;;;;;1895332;75;21071;-85
2022/03/24 06:35:32;;;;;;;12.63;9.08;;;7.40;99.90;;;;;;1895068;75;21114;-85
2022/03/24 06:38:24;;;;;;;14.07;8.80;;;7.40;99.90;;;;;;1895700;75;21197;-85
2022/03/24 06:41:16;;;;;;;10.88;8.98;;;7.40;99.90;;;;;;1884146;76;21091;-85
2022/03/24 06:44:08;;;;;;;13.78;8.53;;;7.50;99.90;;;;;;1895530;75;21156;-85
2022/03/24 06:47:00;;;;;;;12.68;8.75;;;7.50;99.90;;;;;;1895720;75;21672;-85
2022/03/24 06:49:52;;;;;;;12.18;8.23;;;7.50;99.90;;;;;;1892735;75;21121;-85
2022/03/24 06:52:44;;;;;;;11.33;8.10;;;7.50;99.90;;;;;;1906386;75;21051;-85
2022/03/24 06:55:36;;;;;;;10.93;7.80;;;7.50;99.90;;;;;;1917901;74;21036;-86
2022/03/24 06:58:28;;;;;;;13.18;7.65;;;7.50;99.90;;;;;;1886705;75;21167;-86
2022/03/24 07:01:22;;;;;;;11.12;8.08;;;7.60;99.90;;;;;;1896614;74;21092;-85
2022/03/24 07:04:14;;;;;;;11.33;7.47;;;7.60;99.90;;;;;;1893264;76;21054;-86
2022/03/24 07:07:06;;;;;;;14.47;8.68;;;7.60;99.90;;;;;;1909302;74;21135;-85
2022/03/24 07:09:58;;;;;;;10.65;8.05;;;7.70;99.90;;;;;;1899602;74;21051;-85
2022/03/24 07:12:50;;;;;;;11.57;7.58;;;7.70;99.90;;;;;;1915705;74;21096;-86
2022/03/24 07:15:43;;;;;;;9.90;7.45;;;7.80;99.90;;;;;;1893891;74;21117;-86
2022/03/24 07:18:34;;;;;;;13.03;8.65;;;7.90;99.90;;;;;;1911079;74;21036;-86
2022/03/24 07:21:26;;;;;;;12.07;8.70;;;7.90;99.90;;;;;;1914041;74;21109;-85
2022/03/24 07:24:19;;;;;;;10.63;7.85;;;8.00;99.90;;;;;;1915869;74;21227;-85
2022/03/24 07:27:11;;;;;;;11.22;8.85;;;8.10;99.90;;;;;;1915554;74;21607;-88
2022/03/24 07:32:44;;;;;;;13.68;9.18;;;8.30;99.90;;;;;;1963837;72;22125;-87
2022/03/24 07:35:59;;;;;;;14.55;7.97;;;8.40;99.90;;;;;;1917408;75;21095;-88
2022/03/24 07:38:52;;;;;;;13.13;8.48;;;8.40;99.90;;;;;;1923886;73;21096;-86
2022/03/24 07:41:44;;;;;;;12.43;8.18;;;8.40;99.90;;;;;;1927630;73;21146;-86
2022/03/24 07:44:36;;;;;;;13.65;9.18;;;8.40;99.90;;;;;;1917442;74;21048;-86
2022/03/24 07:47:28;;;;;;;14.13;8.88;;;8.50;99.90;;;;;;1923860;73;21050;-87
2022/03/24 07:53:30;;;;;;;15.38;10.15;;;8.60;99.90;;;;;;1958684;72;28044;-86
2022/03/24 07:56:43;;;;;;;18.00;9.23;;;8.80;99.90;;;;;;1857167;76;21238;-86
2022/03/24 07:59:36;;;;;;;15.23;9.75;;;8.80;99.90;;;;;;1922767;74;21054;-87
2022/03/24 08:02:28;;;;;;;16.07;8.33;;;8.90;99.90;;;;;;1917461;75;21197;-87
2022/03/24 08:05:23;;;;;;;18.05;9.48;;;9.00;99.90;;;;;;1931649;73;21187;-86
2022/03/24 08:08:16;;;;;;;15.08;9.33;;;9.10;99.90;;;;;;1919292;73;21090;-86
2022/03/24 08:11:08;;;;;;;12.70;8.65;;;9.10;99.90;;;;;;1921900;73;21061;-86
2022/03/24 08:14:00;;;;;;;13.20;9.35;;;9.20;99.90;;;;;;1929669;73;21179;-87
2022/03/24 08:16:53;;;;;;;15.32;8.65;;;9.30;99.90;;;;;;1917583;75;21066;-88
2022/03/24 08:19:45;;;;;;;13.65;9.15;;;9.50;99.90;;;;;;1917589;75;21052;-88
2022/03/24 08:22:37;;;;;;;13.28;9.28;;;9.60;99.90;;;;;;1924345;73;21050;-89
2022/03/24 08:25:29;;;;;;;15.50;10.13;;;9.70;99.90;;;;;;1928566;73;21145;-88
2022/03/24 08:28:22;;;;;;;14.65;9.13;;;9.80;99.90;;;;;;1932411;73;21612;-88
2022/03/24 08:31:16;;;;;;;13.78;8.83;;;9.90;99.90;;;;;;1917782;75;21059;-88
2022/03/24 08:34:09;;;;;;;14.65;9.40;;;10.00;99.90;;;;;;1917370;75;21110;-88
2022/03/24 08:37:02;;;;;;;15.18;9.45;;;10.00;99.90;;;;;;1917573;75;21138;-88
2022/03/24 08:39:58;;;;;;;16.07;9.60;;;10.10;99.90;;;;;;1917584;75;21089;-87
2022/03/24 08:42:49;;;;;;;14.73;8.98;;;10.20;99.90;;;;;;1917790;75;21107;-88
2022/03/24 08:45:41;;;;;;;13.95;9.40;;;10.30;99.90;;;;;;1917821;75;21052;-88
2022/03/24 08:48:33;;;;;;;15.32;8.63;;;10.40;99.90;;;;;;1917768;75;21043;-87
2022/03/24 08:51:26;;;;;;;11.28;8.43;;;10.50;99.90;;;;;;1917460;75;21062;-87
2022/03/24 08:54:18;;;;;;;14.00;8.98;;;10.60;99.90;;;;;;1885078;76;21083;-88
2022/03/24 08:57:10;;;;;;;13.62;9.65;;;10.70;99.90;;;;;;1897526;75;21085;-87
2022/03/24 09:00:07;;;;;;;12.90;8.75;;;10.90;99.90;;;;;;1889652;75;21082;-89
2022/03/24 09:02:58;;;;;;;14.78;8.80;;;10.90;99.90;;;;;;1885637;76;21050;-88
2022/03/24 09:05:50;;;;;;;17.60;9.15;;;11.00;99.90;;;;;;1904038;75;21154;-88
2022/03/24 09:08:42;;;;;;;16.67;8.98;;;11.10;99.90;;;;;;1899087;75;21048;-86
2022/03/24 09:11:34;;;;;;;13.15;9.33;;;11.20;99.90;;;;;;1884423;75;21157;-87
2022/03/24 09:14:26;;;;;;;13.50;8.90;;;11.30;99.90;;;;;;1888898;75;21158;-88
2022/03/24 09:17:18;;;;;;;12.93;7.80;;;11.30;99.90;;;;;;1876688;75;21197;-88
2022/03/24 09:20:13;;;;;;;12.93;8.80;;;11.40;99.90;;;;;;1884410;76;21063;-89
2022/03/24 09:23:08;;;;;;;11.30;7.58;;;11.50;99.90;;;;;;1895841;75;21195;-87
2022/03/24 09:26:01;;;;;;;15.18;8.80;;;11.60;99.90;;;;;;1894975;75;21052;-88
2022/03/24 09:28:54;;;;;;;16.27;8.25;;;11.70;99.90;;;;;;1894875;75;21127;-88
2022/03/24 09:31:47;;;;;;;10.88;7.80;;;11.80;99.90;;;;;;1898037;74;21061;-88
2022/03/24 09:34:39;;;;;;;10.98;7.75;;;11.90;99.90;;;;;;1884432;75;21099;-88
2022/03/24 09:37:32;;;;;;;12.65;7.40;;;12.00;99.90;;;;;;1884340;75;21591;-88
2022/03/24 09:40:25;;;;;;;31.50;9.98;;;12.00;99.90;;;;;;1910143;75;21196;-89
2022/03/24 09:43:18;;;;;;;16.30;8.63;;;12.10;99.90;;;;;;1896669;75;21059;-89
2022/03/24 09:46:10;;;;;;;10.98;7.62;;;12.20;99.90;;;;;;1900014;75;21055;-89
2022/03/24 09:49:02;;;;;;;14.07;7.03;;;12.30;99.90;;;;;;1906977;75;21066;-87
2022/03/24 09:51:54;;;;;;;14.70;7.70;;;12.40;99.90;;;;;;1931741;74;22233;-88
2022/03/24 09:54:47;;;;;;;14.45;8.20;;;12.50;99.90;;;;;;1910926;74;21083;-87
2022/03/24 09:57:39;;;;;;;10.68;7.17;;;12.60;99.90;;;;;;1931313;73;21135;-87
2022/03/24 10:00:32;;;;;;;13.10;5.92;;;12.70;99.90;;;;;;1918991;74;21218;-89
2022/03/24 10:03:23;;;;;;;6.83;4.55;;;12.80;99.90;;;;;;1928586;73;21110;-88
2022/03/24 10:06:15;;;;;;;9.88;5.65;;;13.00;99.90;;;;;;1923329;73;21551;-88
2022/03/24 10:09:08;;;;;;;8.90;5.90;;;13.10;99.90;;;;;;1937797;73;21105;-88
2022/03/24 10:12:03;;;;;;;11.68;6.45;;;13.20;99.90;;;;;;1933217;73;21039;-87
2022/03/24 10:15:02;;;;;;;10.10;6.53;;;13.30;99.90;;;;;;1904565;75;21048;-87
2022/03/24 10:17:56;;;;;;;10.05;6.47;;;13.30;99.90;;;;;;1917003;75;21174;-89
2022/03/24 10:20:48;;;;;;;7.92;5.90;;;13.50;99.90;;;;;;1920186;73;21092;-88
2022/03/24 10:23:47;;;;;;;10.85;6.35;;;13.60;99.90;;;;;;1917283;74;21166;-87
2022/03/24 10:26:48;;;;;;;9.43;6.45;;;13.60;99.90;;;;;;1916892;75;21080;-88
2022/03/24 10:29:40;;;;;;;10.78;6.12;;;13.70;99.90;;;;;;1917059;75;21095;-88
2022/03/24 10:32:33;;;;;;;9.48;5.83;;;13.70;99.90;;;;;;1904524;75;21108;-88
2022/03/24 10:35:26;;;;;;;11.30;6.60;;;13.70;99.90;;;;;;1926636;74;21064;-88
2022/03/24 10:38:19;;;;;;;9.80;6.58;;;13.80;99.90;;;;;;1904539;75;21063;-88
2022/03/24 10:41:22;;;;;;;10.18;6.10;;;13.90;99.90;;;;;;1917131;75;21181;-88
2022/03/24 10:44:15;;;;;;;9.30;5.45;;;14.00;99.90;;;;;;1917026;75;21043;-88
2022/03/24 10:47:07;;;;;;;11.40;5.90;;;14.10;99.90;;;;;;1926450;73;21043;-88
2022/03/24 10:52:41;;;;;;;8.43;6.00;;;14.30;99.90;;;;;;1939991;72;22723;-89
2022/03/24 10:55:56;;;;;;;10.08;5.70;;;14.30;99.90;;;;;;1901156;75;21059;-87
2022/03/24 10:58:51;;;;;;;9.98;5.47;;;14.30;99.50;;;;;;1896591;75;21099;-88
2022/03/24 11:01:43;;;;;;;8.78;5.50;;;14.50;99.10;;;;;;1895801;75;21043;-87
2022/03/24 11:04:35;;;;;;;9.23;5.33;;;14.60;97.20;;;;;;1895542;75;21067;-87
2022/03/24 11:07:30;;;;;;;8.15;4.67;;;14.80;96.60;;;;;;1898420;75;21130;-87
2022/03/24 11:10:26;;;;;;;7.58;4.85;;;14.80;95.70;;;;;;1899708;75;21562;-87
2022/03/24 11:13:26;;;;;;;7.03;4.72;;;14.90;95.20;;;;;;1895292;75;21121;-86
2022/03/24 11:16:20;;;;;;;6.80;4.58;;;14.90;94.60;;;;;;1895597;75;21059;-87
2022/03/24 11:19:16;;;;;;;7.10;4.58;;;15.10;93.30;;;;;;1895694;75;21154;-87
2022/03/24 11:22:11;;;;;;;7.40;5.10;;;15.20;92.30;;;;;;1898876;75;21051;-86
2022/03/24 11:25:03;;;;;;;6.65;4.72;;;15.30;91.80;;;;;;1885183;76;21490;-86
2022/03/24 11:27:58;;;;;;;8.63;4.45;;;15.40;91.50;;;;;;1895418;75;21149;-87
2022/03/24 11:30:50;;;;;;;16.87;5.55;;;15.50;90.60;;;;;;1917611;75;21059;-86
2022/03/24 11:33:45;;;;;;;11.12;4.50;;;15.50;90.80;;;;;;1895382;75;21136;-86
2022/03/24 11:36:38;;;;;;;6.37;4.35;;;15.60;90.10;;;;;;1899503;75;21639;-87
2022/03/24 11:39:29;;;;;;;7.65;4.22;;;15.80;87.80;;;;;;1897723;75;21591;-87
2022/03/24 11:42:21;;;;;;;6.20;4.10;;;15.90;86.30;;;;;;1895342;75;21112;-86
2022/03/24 11:48:44;;;;;;;9.18;5.33;;;15.90;86.00;;;;;;1940132;72;22184;-89
2022/03/24 11:52:26;;;;;;;8.40;5.53;;;16.10;86.40;;;;;;1872893;75;21041;-78
2022/03/24 11:55:18;;;;;;;7.42;5.05;;;16.20;85.90;;;;;;1881361;75;21130;-79
2022/03/24 11:58:13;;;;;;;8.93;4.92;;;16.30;85.70;;;;;;1883404;75;21503;-78
2022/03/24 12:01:26;;;;;;;9.40;5.10;;;16.40;86.30;;;;;;1885125;75;21161;-80
2022/03/24 12:04:19;;;;;;;6.33;4.47;;;16.60;85.90;;;;;;1892491;75;21064;-78
2022/03/24 12:10:02;;;;;;;7.87;4.92;;;16.90;84.50;;;;;;1948867;72;22107;-80
2022/03/24 12:13:22;;;;;;;7.92;4.83;;;16.90;83.30;;;;;;1895626;74;21036;-80
2022/03/24 12:16:18;;;;;;;8.65;5.28;;;17.10;84.20;;;;;;1895492;75;21088;-80
2022/03/24 12:19:21;;;;;;;8.35;5.20;;;17.10;84.00;;;;;;1895398;75;21145;-79
2022/03/24 12:22:35;;;;;;;8.95;5.15;;;17.20;83.40;;;;;;1896867;75;21494;-79
2022/03/24 12:25:29;;;;;;;7.70;5.22;;;17.30;81.70;;;;;;1904947;75;21184;-79
2022/03/24 12:28:32;;;;;;;8.75;5.05;;;17.50;78.60;;;;;;1901653;75;21133;-79
2022/03/24 12:31:21;;;;;;;6.78;3.98;;;17.60;79.40;;;;;;1897246;75;21122;-79
2022/03/24 12:34:18;;;;;;;9.75;5.20;;;17.70;72.20;;;;;;1895438;75;21157;-79
2022/03/24 12:37:12;;;;;;;6.67;4.90;;;17.70;75.60;;;;;;1892041;75;21601;-79
2022/03/24 12:40:14;;;;;;;9.53;4.95;;;17.80;74.70;;;;;;1884490;76;21184;-79
2022/03/24 12:43:07;;;;;;;6.37;5.12;;;17.90;75.50;;;;;;1902908;75;21600;-79
2022/03/24 12:46:22;;;;;;;6.55;4.37;;;17.90;73.90;;;;;;1897773;75;21114;-80
2022/03/24 12:49:39;;;;;;;8.50;4.00;;;18.10;68.80;;;;;;1897455;75;21517;-79
2022/03/24 12:52:52;;;;;;;9.63;4.22;;;18.20;56.30;;;;;;1899949;75;21056;-79
2022/03/24 12:55:45;;;;;;;7.35;3.52;;;18.30;58.90;;;;;;1899493;75;21125;-79
2022/03/24 12:58:41;;;;;;;4.90;3.80;;;18.50;54.50;;;;;;1885253;75;21111;-78
2022/03/24 13:01:32;;;;;;;5.17;3.87;;;18.40;56.30;;;;;;1890448;75;21047;-78
2022/03/24 13:05:14;;;;;;;7.40;4.33;;;18.40;59.70;;;;;;1894923;75;21070;-79
2022/03/24 13:08:18;;;;;;;7.12;3.90;;;18.40;58.30;;;;;;1894017;75;21107;-79
2022/03/24 13:13:55;;;;;;;6.45;3.80;;;18.70;52.60;;;;;;1939650;72;22194;-78
2022/03/24 13:18:13;;;;;;;8.63;4.40;;;18.80;52.50;;;;;;1901412;75;21191;-79
2022/03/24 13:21:25;;;;;;;9.58;3.60;;;18.80;51.50;;;;;;1908910;75;21078;-77
2022/03/24 13:24:22;;;;;;;4.83;3.62;;;18.90;50.20;;;;;;1906655;75;21582;-78
2022/03/24 13:27:17;;;;;;;5.47;3.90;;;18.90;50.30;;;;;;1906636;75;21528;-78
2022/03/24 13:30:10;;;;;;;5.67;3.65;;;19.00;51.50;;;;;;1884624;75;21122;-78
2022/03/24 13:33:04;;;;;;;8.33;4.35;;;19.10;49.60;;;;;;1884839;76;21106;-78
2022/03/24 13:35:56;;;;;;;7.17;4.03;;;19.10;52.00;;;;;;1906363;75;21067;-78
2022/03/24 13:38:49;;;;;;;6.80;4.08;;;19.10;52.00;;;;;;1906693;75;21138;-79
2022/03/24 13:41:42;;;;;;;5.80;3.80;;;19.10;51.50;;;;;;1884697;75;21138;-79
2022/03/24 13:44:35;;;;;;;4.05;3.40;;;19.30;50.40;;;;;;1901887;75;21507;-78
2022/03/24 13:47:28;;;;;;;9.15;3.52;;;19.20;46.80;;;;;;1896764;75;21107;-78
2022/03/24 13:50:21;;;;;;;4.78;3.40;;;19.40;47.50;;;;;;1888225;75;21060;-78
2022/03/24 13:53:17;;;;;;;9.98;5.00;;;19.30;49.20;;;;;;1884389;76;21110;-78
2022/03/24 13:56:11;;;;;;;6.58;4.08;;;19.20;50.40;;;;;;1903521;75;21084;-78
2022/03/24 13:59:03;;;;;;;6.05;3.77;;;19.20;51.20;;;;;;1900189;75;21171;-78
2022/03/24 14:01:59;;;;;;;7.17;4.35;;;19.30;51.30;;;;;;1895271;75;21080;-78
2022/03/24 14:05:09;;;;;;;7.12;4.75;;;19.50;52.10;;;;;;1895464;75;21582;-79
2022/03/24 14:08:02;;;;;;;5.33;4.53;;;19.40;52.90;;;;;;1890136;75;21168;-79
2022/03/24 14:10:56;;;;;;;5.15;4.20;;;19.40;53.10;;;;;;1906475;75;21113;-78
2022/03/24 14:13:50;;;;;;;5.45;4.60;;;19.40;53.70;;;;;;1890547;76;21090;-78
2022/03/24 14:16:43;;;;;;;9.53;5.08;;;19.50;54.90;;;;;;1862573;76;21083;-78
2022/03/24 14:19:35;;;;;;;8.20;4.70;;;19.50;54.70;;;;;;1886365;75;21051;-79
2022/03/24 14:25:17;;;;;;;8.78;5.45;;;20.40;52.60;;;;;;1958071;72;22103;-78
2022/03/24 14:28:36;;;;;;;8.93;4.80;;;21.10;52.50;;;;;;1892155;75;21082;-78
2022/03/24 14:31:31;;;;;;;6.75;4.95;;;21.40;52.80;;;;;;1905233;75;21181;-78
2022/03/24 14:34:23;;;;;;;5.62;4.60;;;21.70;52.30;;;;;;1884339;75;21052;-78
2022/03/24 14:37:16;;;;;;;7.30;4.80;;;21.90;51.70;;;;;;1883966;75;21060;-79
2022/03/24 14:40:11;;;;;;;8.25;5.40;;;22.20;51.10;;;;;;1883987;75;21067;-78
2022/03/24 14:43:05;;;;;;;6.10;5.12;;;22.20;51.10;;;;;;1905193;75;21047;-78
2022/03/24 14:45:59;;;;;;;5.90;5.00;;;22.10;51.30;;;;;;1890258;75;21086;-78
2022/03/24 14:48:52;;;;;;;7.15;5.20;;;22.30;50.40;;;;;;1894415;75;21168;-78
2022/03/24 14:51:44;;;;;;;7.78;5.47;;;22.30;50.50;;;;;;1895507;75;21218;-77
2022/03/24 14:54:36;;;;;;;7.30;5.67;;;22.10;50.40;;;;;;1894103;75;21059;-77
2022/03/24 14:57:27;;;;;;;6.72;5.40;;;22.10;50.80;;;;;;1873119;75;21214;-78
2022/03/24 15:00:22;;;;;;;7.85;5.20;;;22.80;50.70;;;;;;1894328;75;21147;-78
2022/03/24 15:03:14;;;;;;;5.97;4.53;;;22.60;49.50;;;;;;1872945;75;21138;-79
2022/03/24 15:06:05;;;;;;;8.40;5.20;;;22.90;47.40;;;;;;1894982;75;21099;-79
2022/03/24 15:08:57;;;;;;;7.90;5.53;;;23.10;47.80;;;;;;1887956;75;21088;-78
2022/03/24 15:11:48;;;;;;;11.65;5.33;;;23.30;48.20;;;;;;1872907;75;21098;-78
2022/03/24 15:17:53;;;;;;;9.75;5.70;;;23.30;47.60;;;;;;1883647;75;21063;-78
2022/03/24 15:20:43;;;;;;;7.58;5.50;;;23.00;47.80;;;;;;1883060;75;21109;-78
2022/03/24 15:23:38;;;;;;;7.00;5.12;;;23.20;48.40;;;;;;1888898;75;21133;-77
2022/03/24 15:26:28;;;;;;;9.33;5.60;;;23.00;47.60;;;;;;1893118;75;21111;-78
2022/03/24 15:29:22;;;;;;;8.18;5.50;;;23.20;48.30;;;;;;1872790;75;21207;-78
2022/03/24 15:32:13;;;;;;;5.85;5.10;;;23.20;48.40;;;;;;1875126;75;21056;-79
2022/03/24 15:35:09;;;;;;;9.43;5.67;;;23.30;47.50;;;;;;1885962;75;21573;-79
2022/03/24 15:38:00;;;;;;;9.13;5.72;;;23.10;48.20;;;;;;1872257;75;21544;-79
2022/03/24 15:41:12;;;;;;;12.05;5.40;;;23.10;48.30;;;;;;1881054;75;21048;-79
2022/03/24 15:44:04;;;;;;;17.95;5.70;;;23.20;48.20;;;;;;1882709;75;21071;-79
2022/03/24 15:47:29;;;;;;;7.72;5.20;;;23.20;48.60;;;;;;1880134;75;21093;-79
2022/03/24 15:54:12;;;;;;;8.75;5.78;;;23.60;47.30;;;;;;1893917;75;21071;-78